Time;durP1;ratioP1;P1;durP2;ratioP2;P2;SDS_P1;SDS_P2;PMS_P1;PMS_P2;Temp;Humidity;BMP_temperature;BMP_pressure;BME280_temperature;BME280_humidity;BME280_pressure;Samples;Min_cycle;Max_cycle;Signal;HPM_P1;HPM_P2
2022/05/27 00:01:17;;;;;;;9.35;2.47;;;;;;;9.65;63.82;100836.52;1725091;82;21537;-89
2022/05/27 00:04:01;;;;;;;7.35;2.60;;;;;;;9.61;63.98;100834.66;1783856;80;21817;-90
2022/05/27 00:06:28;;;;;;;12.23;2.92;;;;;;;9.60;64.17;100835.48;1781107;80;21042;-88
2022/05/27 00:08:55;;;;;;;7.65;2.42;;;;;;;9.62;64.51;100831.16;1742823;80;21196;-88
2022/05/27 00:11:22;;;;;;;6.10;2.50;;;;;;;9.69;64.63;100825.25;1810703;79;21074;-87
2022/05/27 00:13:50;;;;;;;5.95;2.58;;;;;;;9.78;64.73;100820.70;1807351;79;21058;-88
2022/05/27 00:16:23;;;;;;;9.65;3.50;;;;;;;9.90;64.86;100817.52;1809050;79;21019;-87
2022/05/27 00:19:03;;;;;;;11.30;3.35;;;;;;;10.04;64.88;100820.13;1801394;79;21031;-88
2022/05/27 00:21:30;;;;;;;12.10;3.17;;;;;;;10.15;64.82;100812.52;1808588;79;22402;-89
2022/05/27 00:23:57;;;;;;;9.30;2.50;;;;;;;10.28;64.82;100805.42;1796508;79;21050;-87
2022/05/27 00:26:25;;;;;;;7.42;3.00;;;;;;;10.41;64.77;100796.59;1739644;80;21011;-89
2022/05/27 00:29:07;;;;;;;9.55;3.02;;;;;;;10.49;64.72;100795.95;1785053;80;21015;-89
2022/05/27 00:31:36;;;;;;;9.80;2.40;;;;;;;10.60;64.66;100792.69;1781747;79;21050;-89
2022/05/27 00:34:03;;;;;;;9.85;2.35;;;;;;;10.68;64.55;100781.52;1776695;79;22592;-87
2022/05/27 00:36:30;;;;;;;8.13;2.25;;;;;;;10.68;64.44;100769.67;1799050;79;21108;-86
2022/05/27 00:39:03;;;;;;;8.43;2.25;;;;;;;10.86;64.40;100785.44;1803511;79;21044;-86
2022/05/27 00:41:49;;;;;;;10.55;2.45;;;;;;;10.93;64.36;100791.77;1803315;79;21064;-90
2022/05/27 00:44:16;;;;;;;10.20;2.30;;;;;;;11.00;64.34;100787.99;1802379;79;21119;-86
2022/05/27 00:47:10;;;;;;;6.83;2.30;;;;;;;11.06;64.10;100782.86;1803071;79;21690;-88
2022/05/27 00:50:20;;;;;;;6.83;2.40;;;;;;;11.13;64.08;100792.22;1781592;79;20971;-89
2022/05/27 00:52:47;;;;;;;7.87;2.77;;;;;;;11.16;64.03;100777.81;1771337;79;21082;-88
2022/05/27 00:55:27;;;;;;;5.75;2.33;;;;;;;11.24;63.98;100778.45;1743303;80;21139;-88
2022/05/27 00:58:12;;;;;;;8.83;2.58;;;;;;;11.32;64.07;100775.98;1769105;80;21106;-88
2022/05/27 01:00:43;;;;;;;4.45;1.57;;;;;;;11.37;63.93;100775.64;1771539;79;21681;-89
2022/05/27 01:03:19;;;;;;;7.75;2.25;;;;;;;11.42;63.97;100774.44;1771401;80;21045;-88
2022/05/27 01:06:01;;;;;;;7.22;2.10;;;;;;;11.42;63.82;100770.48;1782110;79;21076;-89
2022/05/27 01:08:30;;;;;;;6.67;2.10;;;;;;;11.44;63.79;100773.61;1780106;79;21494;-88
2022/05/27 01:11:38;;;;;;;7.92;1.70;;;;;;;11.47;63.83;100773.69;1783553;79;21219;-88
2022/05/27 01:14:43;;;;;;;7.33;2.20;;;;;;;11.49;63.71;100771.09;1780821;79;21759;-88
2022/05/27 01:17:41;;;;;;;6.03;2.20;;;;;;;11.53;63.71;100765.45;1777046;79;21079;-90
2022/05/27 01:20:35;;;;;;;8.58;2.12;;;;;;;11.55;63.63;100766.37;1743974;82;21596;-90
2022/05/27 01:23:50;;;;;;;14.83;2.40;;;;;;;11.57;63.52;100758.07;1747480;80;21175;-90
2022/05/27 01:26:25;;;;;;;6.10;1.70;;;;;;;11.59;63.54;100754.59;1747532;82;21075;-89
2022/05/27 01:29:13;;;;;;;5.05;1.80;;;;;;;11.64;63.50;100753.39;1745759;80;22587;-89
2022/05/27 01:32:03;;;;;;;8.15;1.50;;;;;;;11.66;63.50;100749.91;1717435;82;21095;-91
2022/05/27 01:38:57;;;;;;;6.85;2.00;;;;;;;11.72;63.47;100753.11;1721683;82;21059;-89
2022/05/27 01:42:05;;;;;;;8.08;1.95;;;;;;;11.72;63.45;100739.92;1656530;86;21853;-90
2022/05/27 01:44:59;;;;;;;6.15;2.00;;;;;;;11.72;63.42;100732.45;1662010;86;21930;-89
2022/05/27 01:48:28;;;;;;;7.45;2.40;;;;;;;11.74;63.41;100727.66;1662227;84;21103;-89
2022/05/27 01:51:26;;;;;;;6.47;1.80;;;;;;;11.75;63.45;100720.62;1662509;84;21055;-87
2022/05/27 01:55:01;;;;;;;6.25;1.77;;;;;;;11.75;63.39;100720.22;1662334;86;21671;-88
2022/05/27 01:57:50;;;;;;;10.20;2.33;;;;;;;11.75;63.42;100712.30;1641361;86;21093;-90
2022/05/27 02:00:21;;;;;;;10.23;2.05;;;;;;;11.79;63.45;100711.50;1609370;87;21798;-89
2022/05/27 02:03:25;;;;;;;2.87;1.22;;;;;;;11.80;63.45;100711.94;1623154;87;21059;-90
2022/05/27 02:06:02;;;;;;;5.87;1.25;;;;;;;11.83;63.45;100708.05;1644576;87;21599;-88
2022/05/27 02:08:57;;;;;;;3.35;1.62;;;;;;;11.85;63.57;100705.02;1665354;85;21120;-89
2022/05/27 02:12:08;;;;;;;6.50;1.47;;;;;;;11.88;63.68;100710.80;1672037;85;21144;-90
2022/05/27 02:14:47;;;;;;;4.10;1.40;;;;;;;11.92;63.79;100712.66;1649169;85;21779;-87
2022/05/27 02:17:25;;;;;;;3.25;1.02;;;;;;;11.92;63.92;100702.52;1628072;82;21374;-89
2022/05/27 02:20:18;;;;;;;6.78;1.37;;;;;;;11.95;64.03;100705.23;1746059;82;20994;-89
2022/05/27 02:22:50;;;;;;;5.20;1.40;;;;;;;11.96;63.93;100699.98;1747375;82;21033;-89
2022/05/27 02:25:38;;;;;;;18.05;12.58;;;;;;;11.96;63.91;100684.59;1758270;80;21502;-88
2022/05/27 02:32:16;;;;;;;7.15;2.10;;;;;;;11.96;64.01;100691.19;1762752;80;21073;-87
2022/05/27 02:35:09;;;;;;;7.95;1.62;;;;;;;11.97;63.83;100685.03;1806936;78;20991;-91
2022/05/27 02:37:49;;;;;;;3.20;1.15;;;;;;;11.99;63.78;100674.08;1775700;79;21582;-91
2022/05/27 02:40:24;;;;;;;4.65;1.20;;;;;;;12.01;63.76;100657.84;1762540;79;21104;-85
2022/05/27 02:43:33;;;;;;;3.62;1.27;;;;;;;12.02;63.71;100649.08;1810797;79;21705;-87
2022/05/27 02:46:37;;;;;;;3.47;1.22;;;;;;;12.02;63.68;100644.69;1795364;79;21264;-87
2022/05/27 02:49:28;;;;;;;4.58;1.12;;;;;;;12.01;63.60;100649.52;1801921;79;24562;-87
2022/05/27 02:52:00;;;;;;;6.17;1.15;;;;;;;11.98;63.63;100648.14;1797633;79;21075;-87
2022/05/27 02:54:50;;;;;;;4.75;1.10;;;;;;;11.95;63.62;100638.84;1810408;78;21066;-86
2022/05/27 02:57:30;;;;;;;3.60;1.25;;;;;;;11.93;63.62;100636.61;1755622;81;21929;-87
2022/05/27 02:59:57;;;;;;;6.83;1.40;;;;;;;11.88;63.68;100629.03;1781068;80;21270;-89
2022/05/27 03:02:26;;;;;;;3.15;1.20;;;;;;;11.86;63.78;100635.59;1749680;81;21046;-88
2022/05/27 03:05:00;;;;;;;6.08;1.10;;;;;;;11.81;63.85;100625.39;1772676;80;21023;-88
2022/05/27 03:07:56;;;;;;;6.97;1.05;;;;;;;11.88;63.93;100632.99;1778093;79;21077;-88
2022/05/27 03:10:40;;;;;;;3.47;0.88;;;;;;;11.92;64.01;100620.34;1738167;81;22744;-86
2022/05/27 03:13:47;;;;;;;2.22;1.02;;;;;;;11.96;64.05;100622.17;1792935;79;21019;-89
2022/05/27 03:16:25;;;;;;;6.22;1.92;;;;;;;12.03;64.20;100628.02;1793394;78;21023;-87
2022/05/27 03:19:26;;;;;;;3.10;0.98;;;;;;;12.11;64.20;100629.89;1807644;79;21076;-87
2022/05/27 03:22:01;;;;;;;3.95;1.05;;;;;;;12.17;64.24;100637.91;1806941;78;21074;-90
2022/05/27 03:24:39;;;;;;;3.62;1.35;;;;;;;12.22;64.27;100626.56;1791638;78;22568;-86
2022/05/27 03:27:32;;;;;;;2.85;0.90;;;;;;;12.24;64.31;100631.43;1807019;77;21033;-86
2022/05/27 03:30:20;;;;;;;3.27;1.10;;;;;;;12.28;64.33;100625.77;1803640;79;21532;-87
2022/05/27 03:33:25;;;;;;;3.42;1.30;;;;;;;12.29;64.36;100631.48;1775357;79;21023;-88
2022/05/27 03:35:58;;;;;;;3.80;1.00;;;;;;;12.31;64.41;100629.76;1805783;78;21050;-89
2022/05/27 03:38:59;;;;;;;4.35;1.30;;;;;;;12.33;64.47;100632.43;1807779;78;21801;-87
2022/05/27 03:41:44;;;;;;;2.75;1.20;;;;;;;12.34;64.52;100631.58;1792571;79;21062;-87
2022/05/27 03:44:15;;;;;;;;;;;;;;;12.34;64.52;100635.10;1798612;79;21015;-87
2022/05/27 03:46:42;;;;;;;4.45;1.00;;;;;;;12.34;64.62;100631.58;1826645;77;20189;-89
2022/05/27 03:49:09;;;;;;;2.08;1.10;;;;;;;12.35;64.62;100629.38;1809754;79;21027;-87
2022/05/27 03:51:38;;;;;;;3.98;1.17;;;;;;;12.36;64.64;100631.17;1798323;78;21725;-86
2022/05/27 03:54:11;;;;;;;2.00;1.05;;;;;;;12.38;64.67;100630.32;1825173;77;21008;-89
2022/05/27 03:56:41;;;;;;;2.67;1.57;;;;;;;12.42;64.71;100622.90;1852990;77;21093;-91
2022/05/27 03:59:10;;;;;;;2.37;0.80;;;;;;;12.45;64.72;100620.31;1813574;78;21066;-88
2022/05/27 04:01:39;;;;;;;3.50;1.25;;;;;;;12.41;64.84;100597.38;1804898;78;21596;-89
2022/05/27 04:04:07;;;;;;;1.87;0.75;;;;;;;12.52;65.02;100607.20;1809755;79;21694;-89
2022/05/27 04:06:34;;;;;;;3.85;0.80;;;;;;;12.55;65.08;100601.53;1784134;79;21070;-88
2022/05/27 04:09:03;;;;;;;1.37;0.82;;;;;;;12.54;65.11;100599.78;1804119;77;21106;-89
2022/05/27 04:11:33;;;;;;;3.65;0.95;;;;;;;12.54;65.29;100594.50;1807242;77;21034;-92
2022/05/27 04:14:00;;;;;;;0.95;0.82;;;;;;;12.55;65.42;100597.57;1790096;78;21094;-88
2022/05/27 04:16:27;;;;;;;2.85;1.10;;;;;;;12.54;65.53;100594.94;1803138;78;21732;-87
2022/05/27 04:18:54;;;;;;;4.25;0.82;;;;;;;12.49;65.52;100590.89;1799782;79;22224;-91
2022/05/27 04:21:23;;;;;;;1.67;0.72;;;;;;;12.47;65.70;100581.19;1803063;79;21101;-90
2022/05/27 04:23:50;;;;;;;2.17;0.70;;;;;;;12.49;65.86;100576.37;1762237;80;21544;-89
2022/05/27 04:26:17;;;;;;;2.55;0.80;;;;;;;12.56;65.91;100570.77;1812449;79;21065;-87
2022/05/27 04:28:44;;;;;;;1.87;0.98;;;;;;;12.59;65.91;100563.77;1777814;79;22614;-90
2022/05/27 04:31:12;;;;;;;1.42;0.82;;;;;;;12.63;65.79;100563.35;1782137;78;21043;-91
2022/05/27 04:33:39;;;;;;;1.92;0.65;;;;;;;12.67;65.78;100564.28;1782092;79;23265;-89
2022/05/27 04:39:53;;;;;;;1.62;0.88;;;;;;;12.65;65.68;100549.77;1815472;78;21094;-91
2022/05/27 04:42:19;;;;;;;1.35;0.78;;;;;;;12.73;65.74;100548.54;1758957;80;21789;-92
2022/05/27 04:45:40;;;;;;;;;;;;;;;;;;;;;
2022/05/27 04:48:27;;;;;;;3.42;1.20;;;;;;;12.91;66.02;100532.02;1721122;82;21089;-91
2022/05/27 04:50:55;;;;;;;2.17;0.95;;;;;;;13.15;66.12;100523.48;1765642;80;21027;-90
2022/05/27 04:53:22;;;;;;;2.00;1.00;;;;;;;13.54;66.20;100530.09;1755976;80;21011;-91
2022/05/27 04:55:49;;;;;;;2.10;0.98;;;;;;;13.95;65.87;100521.62;1770910;79;21915;-88
2022/05/27 04:58:16;;;;;;;4.53;0.82;;;;;;;14.17;65.36;100522.22;1765134;80;21051;-88
2022/05/27 05:00:48;;;;;;;4.22;1.30;;;;;;;14.38;65.05;100518.81;1763449;79;21026;-89
2022/05/27 05:03:18;;;;;;;2.70;1.17;;;;;;;14.56;64.74;100518.45;1788333;79;21054;-88
2022/05/27 05:05:46;;;;;;;2.17;0.95;;;;;;;14.69;64.50;100522.95;1790513;78;21122;-90
2022/05/27 05:08:34;;;;;;;2.33;1.10;;;;;;;14.65;64.18;100514.56;1815646;77;21706;-90
2022/05/27 05:11:06;;;;;;;3.75;1.17;;;;;;;14.55;64.17;100508.30;1808047;78;21083;-88
2022/05/27 05:13:33;;;;;;;2.55;0.95;;;;;;;14.58;64.26;100498.18;1797371;78;21039;-89
2022/05/27 05:16:07;;;;;;;1.67;1.00;;;;;;;14.58;64.13;100506.13;1795520;77;21084;-89
2022/05/27 05:18:34;;;;;;;3.70;0.98;;;;;;;14.52;64.05;100517.55;1788028;78;21103;-89
2022/05/27 05:21:01;;;;;;;7.35;1.52;;;;;;;14.47;64.17;100521.96;1798959;78;21162;-89
2022/05/27 05:23:28;;;;;;;6.53;1.07;;;;;;;14.41;64.09;100512.63;1801254;77;21043;-86
2022/05/27 05:25:55;;;;;;;5.53;1.35;;;;;;;14.38;64.30;100504.69;1800741;78;21117;-89
2022/05/27 05:28:21;;;;;;;3.75;1.35;;;;;;;14.41;64.41;100495.42;1795447;78;21554;-89
2022/05/27 05:30:48;;;;;;;12.28;1.60;;;;;;;14.44;64.45;100486.18;1800579;78;21181;-89
2022/05/27 05:33:28;;;;;;;3.75;1.32;;;;;;;14.49;64.50;100476.50;1796342;78;22632;-88
2022/05/27 05:35:55;;;;;;;4.25;1.47;;;;;;;14.54;64.49;100469.44;1804106;78;21018;-87
2022/05/27 05:38:22;;;;;;;3.80;1.27;;;;;;;14.72;64.75;100458.52;1801875;78;21071;-87
2022/05/27 05:40:49;;;;;;;3.42;1.55;;;;;;;15.10;64.81;100470.98;1811035;78;21023;-89
2022/05/27 05:43:18;;;;;;;3.80;1.57;;;;;;;15.23;64.33;100458.19;1771124;77;21532;-87
2022/05/27 05:45:46;;;;;;;4.60;1.72;;;;;;;15.30;64.09;100451.14;1800421;78;21746;-88
2022/05/27 05:48:13;;;;;;;5.10;1.70;;;;;;;15.48;64.17;100449.79;1800750;78;21012;-88
2022/05/27 05:50:40;;;;;;;5.15;1.50;;;;;;;15.59;63.75;100449.80;1793824;78;21687;-89
2022/05/27 05:53:07;;;;;;;10.68;1.60;;;;;;;15.70;63.84;100440.06;1803831;77;21064;-88
2022/05/27 05:55:35;;;;;;;12.13;1.72;;;;;;;16.14;63.96;100438.23;1781383;77;21052;-90
2022/05/27 05:58:02;;;;;;;10.98;1.65;;;;;;;16.45;63.36;100428.85;1793615;78;21781;-89
2022/05/27 06:00:29;;;;;;;3.92;1.22;;;;;;;16.64;63.05;100423.00;1806410;77;21066;-88
2022/05/27 06:02:56;;;;;;;5.45;1.35;;;;;;;16.76;62.52;100425.61;1807659;78;21067;-88
2022/05/27 06:05:23;;;;;;;4.00;1.30;;;;;;;16.77;62.19;100415.84;1815655;77;21040;-90
2022/05/27 06:07:51;;;;;;;3.30;1.40;;;;;;;16.73;62.02;100407.01;1750194;80;21269;-90
2022/05/27 06:10:19;;;;;;;2.85;1.22;;;;;;;16.61;61.75;100397.76;1779408;78;21846;-88
2022/05/27 06:12:51;;;;;;;2.58;1.00;;;;;;;16.57;61.89;100385.39;1807888;78;21140;-90
2022/05/27 06:15:17;;;;;;;3.95;1.00;;;;;;;16.61;61.66;100374.75;1775039;78;21079;-88
2022/05/27 06:17:44;;;;;;;2.47;1.20;;;;;;;16.79;61.78;100370.20;1802900;77;21510;-89
2022/05/27 06:20:11;;;;;;;2.05;0.82;;;;;;;17.16;61.95;100379.28;1820962;78;21688;-88
2022/05/27 06:22:38;;;;;;;2.25;0.90;;;;;;;17.56;61.36;100394.89;1817592;77;21918;-88
2022/05/27 06:25:06;;;;;;;3.85;1.05;;;;;;;17.78;60.70;100400.89;1806952;78;21084;-88
2022/05/27 06:27:33;;;;;;;1.27;0.65;;;;;;;17.85;60.21;100400.84;1812991;78;21086;-89
2022/05/27 06:35:37;;;;;;;3.15;0.80;;;;;;;17.24;59.54;100394.27;1812396;77;21963;-89
2022/05/27 06:38:05;;;;;;;1.82;0.70;;;;;;;17.07;59.39;100382.89;1799644;78;21168;-88
2022/05/27 06:40:41;;;;;;;1.15;0.70;;;;;;;16.97;59.63;100378.52;1807245;78;21042;-90
2022/05/27 06:43:08;;;;;;;1.42;0.60;;;;;;;16.91;59.60;100374.12;1806458;78;21040;-90
2022/05/27 06:45:35;;;;;;;1.27;0.68;;;;;;;16.94;59.77;100363.48;1766018;79;21023;-87
2022/05/27 06:48:08;;;;;;;1.92;0.65;;;;;;;17.04;59.70;100363.86;1827776;77;22706;-88
2022/05/27 06:50:37;;;;;;;1.67;0.70;;;;;;;17.25;59.80;100351.29;1809284;78;21158;-87
2022/05/27 06:53:04;;;;;;;0.62;0.60;;;;;;;17.46;59.49;100350.20;1796083;78;21086;-86
2022/05/27 06:55:50;;;;;;;0.60;0.60;;;;;;;17.69;59.34;100348.63;1826028;78;21054;-90
2022/05/27 06:58:17;;;;;;;2.40;0.40;;;;;;;17.96;59.03;100342.16;1761565;78;21038;-86
2022/05/27 07:00:46;;;;;;;1.30;0.70;;;;;;;18.23;58.69;100338.71;1802988;78;21579;-88
2022/05/27 07:03:13;;;;;;;1.15;0.60;;;;;;;18.37;58.13;100346.51;1771805;79;21073;-89
2022/05/27 07:05:40;;;;;;;3.70;0.60;;;;;;;18.36;57.66;100336.31;1802121;78;21044;-89
2022/05/27 07:08:08;;;;;;;0.45;0.40;;;;;;;18.38;57.39;100322.52;1818588;77;21074;-89
2022/05/27 07:10:34;;;;;;;1.12;0.62;;;;;;;18.41;57.20;100318.91;1800712;78;21029;-89
2022/05/27 07:13:02;;;;;;;0.53;0.37;;;;;;;18.43;57.05;100311.34;1794134;78;22545;-90
2022/05/27 07:15:31;;;;;;;1.07;0.80;;;;;;;18.58;56.90;100318.23;1811699;78;21056;-88
2022/05/27 07:18:00;;;;;;;1.12;0.80;;;;;;;18.70;56.76;100313.16;1801573;78;21048;-90
2022/05/27 07:20:27;;;;;;;2.47;0.53;;;;;;;18.96;56.23;100300.78;1808821;77;21082;-89
2022/05/27 07:22:57;;;;;;;1.12;0.57;;;;;;;19.29;56.13;100305.55;1808086;78;21551;-88
2022/05/27 07:25:24;;;;;;;0.60;0.50;;;;;;;19.57;55.65;100299.24;1818971;78;21735;-89
2022/05/27 07:27:51;;;;;;;1.25;0.37;;;;;;;19.77;55.32;100295.77;1810815;78;21095;-89
2022/05/27 07:30:18;;;;;;;2.05;0.50;;;;;;;19.84;54.78;100293.86;1812906;78;20999;-89
2022/05/27 07:32:45;;;;;;;1.65;0.95;;;;;;;19.66;54.47;100290.19;1812315;77;21076;-89
2022/05/27 07:35:12;;;;;;;1.22;0.72;;;;;;;19.34;54.45;100293.02;1810532;78;21068;-88
2022/05/27 07:37:38;;;;;;;1.50;0.88;;;;;;;18.96;54.55;100303.91;1804105;78;21769;-89
2022/05/27 07:40:07;;;;;;;2.15;0.85;;;;;;;18.55;54.88;100309.41;1809130;78;21366;-88
2022/05/27 07:42:34;;;;;;;1.62;0.72;;;;;;;18.22;55.38;100307.63;1813496;78;21105;-88
2022/05/27 07:45:00;;;;;;;2.77;2.58;;;;;;;18.08;56.02;100301.17;1805152;78;21036;-89
2022/05/27 07:47:27;;;;;;;1.98;1.77;;;;;;;17.98;56.08;100299.50;1813769;78;21042;-89
2022/05/27 07:49:54;;;;;;;4.15;2.33;;;;;;;17.93;56.13;100305.36;1805549;78;21703;-89
2022/05/27 07:52:22;;;;;;;1.98;1.20;;;;;;;17.72;55.45;100291.37;1804085;78;21028;-87
2022/05/27 07:54:50;;;;;;;3.50;1.77;;;;;;;17.44;55.43;100295.66;1762730;80;21043;-88
2022/05/27 07:57:27;;;;;;;4.70;1.30;;;;;;;17.15;55.76;100291.95;1796425;78;21837;-89
2022/05/27 08:00:06;;;;;;;3.55;1.92;;;;;;;16.97;56.49;100308.97;1764017;81;21765;-88
2022/05/27 08:02:33;;;;;;;3.75;1.80;;;;;;;17.07;56.91;100301.78;1746236;81;22622;-89
2022/05/27 08:04:59;;;;;;;4.85;1.67;;;;;;;17.47;57.22;100295.64;1797761;78;21068;-88
2022/05/27 08:07:26;;;;;;;5.12;2.08;;;;;;;17.58;56.61;100328.77;1763980;81;21116;-88
2022/05/27 08:09:53;;;;;;;3.83;1.45;;;;;;;17.28;55.94;100337.48;1762687;81;21072;-88
2022/05/27 08:12:26;;;;;;;6.15;1.87;;;;;;;16.91;56.26;100330.26;1806022;77;20999;-89
2022/05/27 08:14:53;;;;;;;3.33;1.62;;;;;;;16.69;56.19;100317.56;1809570;78;21791;-88
2022/05/27 08:17:20;;;;;;;3.90;1.57;;;;;;;16.51;56.35;100303.95;1791448;78;21047;-88
2022/05/27 08:19:47;;;;;;;3.95;1.42;;;;;;;16.27;56.34;100327.55;1801537;77;21106;-89
2022/05/27 08:22:14;;;;;;;4.42;1.42;;;;;;;16.15;56.74;100305.05;1775883;78;21074;-89
2022/05/27 08:24:45;;;;;;;13.55;10.50;;;;;;;16.07;57.39;100303.31;1807400;78;21060;-89
2022/05/27 08:27:09;;;;;;;10.15;3.75;;;;;;;16.14;57.53;100313.44;1804393;78;22583;-89
2022/05/27 08:29:46;;;;;;;4.70;2.37;;;;;;;16.12;57.29;100293.98;1814827;78;21060;-89
2022/05/27 08:32:14;;;;;;;4.40;1.70;;;;;;;16.03;57.28;100302.89;1784474;78;21050;-88
2022/05/27 08:41:00;;;;;;;9.25;2.15;;;;;;;15.99;57.08;100296.26;1795311;79;22626;-88
2022/05/27 08:44:02;;;;;;;6.22;2.10;;;;;;;16.03;56.93;100295.35;1798240;79;21051;-89
2022/05/27 08:46:56;;;;;;;14.20;2.20;;;;;;;16.27;57.33;100287.28;1782789;79;21054;-89
2022/05/27 08:49:34;;;;;;;4.13;1.57;;;;;;;16.77;56.80;100289.60;1773412;79;21019;-90
2022/05/27 08:52:25;;;;;;;6.17;2.02;;;;;;;17.18;56.25;100289.27;1781615;79;21035;-88
2022/05/27 08:55:04;;;;;;;6.95;2.65;;;;;;;17.31;54.62;100287.38;1780291;79;21858;-87
2022/05/27 09:00:26;;;;;;;5.85;2.52;;;;;;;16.64;53.27;100315.37;1779653;79;21023;-89
2022/05/27 09:03:03;;;;;;;7.15;2.60;;;;;;;16.08;53.77;100310.37;1765148;79;21071;-89
2022/05/27 09:05:56;;;;;;;6.10;2.70;;;;;;;15.84;54.18;100315.36;1783785;79;21054;-89
2022/05/27 09:08:25;;;;;;;7.37;2.30;;;;;;;15.74;54.52;100323.77;1777642;79;21805;-88
2022/05/27 09:11:16;;;;;;;5.12;1.70;;;;;;;15.70;54.74;100315.80;1774805;79;21493;-89
2022/05/27 09:14:13;;;;;;;8.43;1.60;;;;;;;15.66;54.68;100300.79;1714311;81;21054;-89
2022/05/27 09:17:05;;;;;;;7.90;2.33;;;;;;;15.64;54.38;100312.73;1781457;79;21107;-88
2022/05/27 09:19:56;;;;;;;7.80;2.00;;;;;;;15.58;54.08;100314.50;1799037;79;21027;-87
2022/05/27 09:22:56;;;;;;;6.03;2.22;;;;;;;15.55;54.46;100319.38;1769207;79;21773;-88
2022/05/27 09:26:10;;;;;;;8.63;2.12;;;;;;;15.60;54.45;100304.34;1785422;79;21484;-88
2022/05/27 09:28:57;;;;;;;9.80;4.45;;;;;;;15.65;54.80;100314.47;1779518;79;21059;-88
2022/05/27 09:31:46;;;;;;;7.25;2.30;;;;;;;15.73;54.05;100313.16;1784620;79;21254;-88
2022/05/27 09:34:13;;;;;;;7.37;2.60;;;;;;;15.70;53.72;100312.70;1778820;79;21134;-89
2022/05/27 09:36:43;;;;;;;6.28;1.87;;;;;;;15.72;53.67;100310.05;1805500;78;21747;-89
2022/05/27 09:39:12;;;;;;;7.33;2.15;;;;;;;15.75;53.44;100316.72;1811052;78;21126;-89
2022/05/27 09:42:21;;;;;;;8.00;1.85;;;;;;;15.82;53.57;100293.67;1806421;78;21097;-89
2022/05/27 09:44:58;;;;;;;5.58;1.90;;;;;;;15.92;52.41;100324.63;1807559;78;21056;-90
2022/05/27 09:47:31;;;;;;;7.22;2.00;;;;;;;16.19;51.57;100327.58;1805218;78;21024;-89
2022/05/27 09:50:32;;;;;;;;;;;;;;;16.41;50.33;100301.80;1799093;78;21835;-89
2022/05/27 09:52:58;;;;;;;8.70;3.20;;;;;;;16.45;49.75;100324.79;1805729;78;20192;-88
2022/05/27 09:55:53;;;;;;;7.70;2.40;;;;;;;16.20;49.77;100282.89;1801915;78;21062;-89
2022/05/27 09:58:24;;;;;;;;;;;;;;;16.35;49.44;100315.55;1800357;78;21060;-88
2022/05/27 10:00:54;;;;;;;7.95;1.60;;;;;;;16.19;48.39;100326.71;1818835;78;20185;-89
2022/05/27 10:03:33;;;;;;;4.83;1.10;;;;;;;16.04;48.48;100324.55;1821157;78;22558;-88
2022/05/27 10:06:08;;;;;;;7.30;1.45;;;;;;;15.90;47.54;100346.30;1810384;78;21038;-89
2022/05/27 10:08:57;;;;;;;10.63;1.92;;;;;;;15.77;47.55;100336.16;1814083;78;21027;-88
2022/05/27 10:11:35;;;;;;;4.22;1.80;;;;;;;15.81;47.01;100339.70;1807808;78;21061;-87
2022/05/27 10:14:22;;;;;;;6.67;2.00;;;;;;;15.84;46.89;100336.59;1805551;78;21030;-87
2022/05/27 10:17:05;;;;;;;7.97;1.90;;;;;;;15.92;46.74;100337.44;1803981;78;21808;-88
2022/05/27 10:19:31;;;;;;;7.95;1.60;;;;;;;15.99;46.31;100363.53;1806100;78;21098;-89
2022/05/27 10:22:10;;;;;;;6.40;1.30;;;;;;;16.11;46.47;100351.97;1810157;78;21059;-90
2022/05/27 10:24:42;;;;;;;9.08;1.52;;;;;;;16.26;46.44;100348.38;1805230;78;21065;-89
2022/05/27 10:27:17;;;;;;;5.25;1.50;;;;;;;16.28;46.27;100358.08;1790653;78;21536;-88
2022/05/27 10:30:04;;;;;;;6.20;1.30;;;;;;;16.27;46.42;100358.09;1801776;78;22852;-90
2022/05/27 10:32:37;;;;;;;5.78;1.45;;;;;;;16.19;46.14;100364.77;1812404;78;21004;-87
2022/05/27 10:35:08;;;;;;;5.80;2.00;;;;;;;16.15;46.37;100368.78;1811892;78;21028;-87
2022/05/27 10:37:40;;;;;;;5.92;1.67;;;;;;;16.09;46.16;100361.27;1768634;78;21585;-88
2022/05/27 10:40:37;;;;;;;5.75;2.08;;;;;;;16.00;45.82;100387.84;1768144;80;21564;-88
2022/05/27 10:43:41;;;;;;;5.78;1.32;;;;;;;15.92;45.74;100372.40;1765772;80;21755;-88
2022/05/27 10:46:19;;;;;;;7.55;1.52;;;;;;;15.96;45.70;100363.53;1768934;79;21586;-88
2022/05/27 10:49:08;;;;;;;8.80;1.57;;;;;;;15.89;45.92;100371.06;1771503;79;21554;-88
2022/05/27 10:52:23;;;;;;;11.20;1.60;;;;;;;15.82;45.68;100377.27;1766205;79;21050;-88
2022/05/27 10:55:20;;;;;;;5.10;1.52;;;;;;;15.71;45.39;100383.47;1763094;80;21051;-88
2022/05/27 11:04:54;;;;;;;5.53;1.70;;;;;;;15.58;46.12;100359.59;1774559;80;20988;-87
2022/05/27 11:07:41;;;;;;;6.62;1.82;;;;;;;15.44;45.35;100380.84;1773910;80;21061;-88
2022/05/27 11:10:32;;;;;;;8.38;1.82;;;;;;;15.36;45.69;100377.75;1745315;80;21137;-88
2022/05/27 11:17:00;;;;;;;6.03;1.55;;;;;;;15.74;45.89;100373.31;1768981;79;21043;-89
2022/05/27 11:19:41;;;;;;;5.78;1.72;;;;;;;15.96;45.26;100396.71;1758992;80;21268;-88
2022/05/27 11:22:32;;;;;;;6.70;1.60;;;;;;;16.07;45.07;100392.25;1770465;79;21033;-89
2022/05/27 11:25:26;;;;;;;4.95;1.70;;;;;;;16.20;44.86;100391.77;1773461;80;21032;-88
2022/05/27 11:28:23;;;;;;;10.65;1.87;;;;;;;16.33;44.76;100384.64;1764838;80;21802;-87
2022/05/27 11:31:25;;;;;;;5.30;1.55;;;;;;;16.35;44.47;100403.20;1766680;80;21008;-88
2022/05/27 11:34:34;;;;;;;6.62;1.60;;;;;;;16.28;44.21;100387.75;1767703;80;21082;-87
2022/05/27 11:37:24;;;;;;;2.62;1.30;;;;;;;16.30;44.01;100389.50;1790461;77;21049;-88
2022/05/27 11:40:03;;;;;;;5.30;1.52;;;;;;;16.46;43.88;100399.63;1756432;79;21090;-88
2022/05/27 11:42:50;;;;;;;4.08;1.35;;;;;;;16.62;44.09;100395.55;1799419;77;22613;-88
2022/05/27 11:45:29;;;;;;;4.80;1.32;;;;;;;16.65;43.64;100393.77;1786469;78;21105;-89
2022/05/27 11:48:18;;;;;;;4.75;1.40;;;;;;;16.60;43.26;100390.25;1800097;78;21743;-88
2022/05/27 11:51:32;;;;;;;6.97;1.50;;;;;;;16.55;43.66;100400.00;1809656;78;21064;-88
2022/05/27 11:54:11;;;;;;;6.72;1.72;;;;;;;16.62;43.79;100407.52;1803166;78;21049;-89
2022/05/27 11:57:08;;;;;;;8.38;1.92;;;;;;;16.56;43.08;100411.54;1806925;78;21758;-89
2022/05/27 11:59:50;;;;;;;6.85;1.50;;;;;;;16.66;43.16;100409.26;1798121;78;21093;-87
2022/05/27 12:02:26;;;;;;;5.03;1.40;;;;;;;16.69;42.31;100415.44;1805298;78;21637;-89
2022/05/27 12:05:01;;;;;;;12.63;1.50;;;;;;;16.63;42.60;100406.61;1804816;78;21052;-90
2022/05/27 12:08:01;;;;;;;5.03;1.40;;;;;;;16.70;42.85;100408.34;1798914;78;21068;-88
2022/05/27 12:10:36;;;;;;;3.58;1.62;;;;;;;16.85;42.42;100437.97;1804929;78;21756;-89
2022/05/27 12:13:27;;;;;;;4.03;1.62;;;;;;;16.78;42.49;100423.82;1820646;78;21054;-89
2022/05/27 12:16:17;;;;;;;4.60;1.57;;;;;;;16.84;43.00;100432.23;1805274;78;21567;-89
2022/05/27 12:18:56;;;;;;;6.60;2.02;;;;;;;17.05;42.78;100425.89;1804033;78;21048;-89
2022/05/27 12:21:29;;;;;;;5.40;1.50;;;;;;;17.32;42.30;100443.87;1810754;78;21062;-89
2022/05/27 12:24:33;;;;;;;6.42;1.65;;;;;;;17.54;41.81;100434.82;1813018;78;23487;-90
2022/05/27 12:27:06;;;;;;;5.03;1.67;;;;;;;17.63;41.15;100427.22;1805433;78;21054;-87
2022/05/27 12:29:38;;;;;;;6.37;1.47;;;;;;;17.64;40.96;100437.85;1777780;78;21046;-91
2022/05/27 12:32:14;;;;;;;3.90;1.87;;;;;;;17.68;41.43;100434.69;1758655;79;21549;-90
2022/05/27 12:34:48;;;;;;;4.15;1.20;;;;;;;17.65;40.98;100427.63;1805809;77;21067;-90
2022/05/27 12:37:26;;;;;;;8.25;1.35;;;;;;;17.58;41.14;100435.68;1764127;80;22707;-90
2022/05/27 12:40:20;;;;;;;2.75;1.47;;;;;;;17.35;41.02;100430.56;1750302;81;21070;-88
2022/05/27 12:42:54;;;;;;;;;;;;;;;17.11;41.01;100423.19;1805602;77;21044;-88
2022/05/27 12:45:27;;;;;;;5.80;1.30;;;;;;;17.01;40.75;100425.48;1810281;77;20861;-88
2022/05/27 12:47:54;;;;;;;6.50;1.37;;;;;;;17.07;40.50;100422.32;1800086;77;21050;-90
2022/05/27 12:50:34;;;;;;;4.47;1.80;;;;;;;17.11;40.93;100419.20;1807575;77;22413;-88
2022/05/27 12:53:20;;;;;;;5.67;1.45;;;;;;;17.10;40.70;100424.09;1803943;77;21525;-91
2022/05/27 13:01:32;;;;;;;5.20;1.55;;;;;;;17.05;40.74;100427.23;1781453;77;21017;-89